Terminal Aerodrome Forecast
Issued by NWS Portland, OR

Home | Current Version | Previous Version | Text Only | Print | Product List | Glossary On
Versions: 1 2 3 4 5 6 7 8 9 10 11 12 13 14 15 16 17 18 19 20 21 22 23 24 25 26 27 28 29 30 31 32 33 34 35 36 37 38 39 40 41 42 43 44 45 46 47 48 49 50
000
FTUS46 KPQR 202320
TAFPDX
TAF
KPDX 202320Z 2100/2124 VRB03KT P6SM -RA SCT005 BKN013 OVC035
     FM210200 31003KT P6SM SCT020 BKN050 OVC080
     FM210800 VRB02KT 1SM BR BKN008 OVC015
     FM211600 VRB03KT P6SM FEW008 BKN025
     FM212100 27004KT P6SM SCT030=

USA.gov is the U.S. government's official web portal to all federal, state and local government web resources and services.